createdAt,value
2022-12-18T02:54:53.478Z,-2.36
2022-12-18T02:57:43.376Z,-2.34
2022-12-18T03:00:15.617Z,-2.28
2022-12-18T03:02:53.267Z,-2.21
2022-12-18T03:05:31.535Z,-2.14
2022-12-18T03:08:08.671Z,-2.06
2022-12-18T03:10:41.036Z,-1.98
2022-12-18T03:13:14.043Z,-1.90
2022-12-18T03:15:43.588Z,-1.84
2022-12-18T03:18:17.213Z,-1.81
2022-12-18T03:20:44.678Z,-1.77
2022-12-18T03:23:18.754Z,-1.72
2022-12-18T03:25:47.542Z,-1.68
2022-12-18T03:28:16.606Z,-1.64
2022-12-18T03:30:44.853Z,-1.60
2022-12-18T03:33:12.470Z,-1.56
2022-12-18T03:35:42.483Z,-1.54
2022-12-18T03:38:10.781Z,-1.53
2022-12-18T03:40:54.815Z,-1.53
2022-12-18T03:43:41.159Z,-1.52
2022-12-18T03:46:53.281Z,-1.52
2022-12-18T03:49:29.056Z,-1.57
2022-12-18T03:52:06.310Z,-1.65
2022-12-18T03:54:33.133Z,-1.68
2022-12-18T03:57:08.114Z,-1.73
2022-12-18T03:59:35.190Z,-1.76
2022-12-18T04:02:02.040Z,-1.79
2022-12-18T04:04:29.728Z,-1.79
2022-12-18T04:06:59.587Z,-1.82
2022-12-18T04:09:26.435Z,-1.83
2022-12-18T04:11:53.348Z,-1.83
2022-12-18T04:14:20.663Z,-1.81
2022-12-18T04:16:50.083Z,-1.81
2022-12-18T04:19:17.891Z,-1.80
2022-12-18T04:21:44.987Z,-1.82
2022-12-18T04:24:12.318Z,-1.83
2022-12-18T04:26:41.254Z,-1.85
2022-12-18T04:29:18.746Z,-1.87
2022-12-18T04:31:45.592Z,-1.89
2022-12-18T04:34:12.465Z,-1.92
2022-12-18T04:36:43.587Z,-1.94
2022-12-18T04:39:10.600Z,-1.95
2022-12-18T04:41:37.370Z,-1.95
2022-12-18T04:44:04.524Z,-1.95
2022-12-18T04:46:31.238Z,-1.97
2022-12-18T04:48:57.893Z,-1.96
2022-12-18T04:51:26.696Z,-1.93
2022-12-18T04:53:54.424Z,-1.90
2022-12-18T04:56:21.117Z,-1.95
2022-12-18T04:58:47.767Z,-1.97
2022-12-18T05:01:15.341Z,-1.98
2022-12-18T05:03:42.466Z,-2.00
2022-12-18T05:06:12.368Z,-2.02
2022-12-18T05:08:39.003Z,-2.02
2022-12-18T05:11:15.066Z,-2.01
2022-12-18T05:13:42.078Z,-2.03
2022-12-18T05:16:09.166Z,-2.07
2022-12-18T05:18:35.831Z,-2.10
2022-12-18T05:21:02.533Z,-2.15
2022-12-18T05:23:29.233Z,-2.19
2022-12-18T05:26:00.467Z,-2.25
2022-12-18T05:28:27.924Z,-2.29
2022-12-18T05:31:01.633Z,-2.30
2022-12-18T05:33:30.228Z,-2.28
2022-12-18T05:35:58.524Z,-2.26
2022-12-18T05:38:25.758Z,-2.29
2022-12-18T05:40:52.648Z,-2.34
2022-12-18T05:43:21.608Z,-2.36
2022-12-18T05:45:48.486Z,-2.37
2022-12-18T05:48:15.231Z,-2.38
2022-12-18T05:50:43.113Z,-2.37
2022-12-18T05:53:09.736Z,-2.39
2022-12-18T05:55:36.927Z,-2.38
2022-12-18T05:58:04.384Z,-2.35
2022-12-18T06:00:33.001Z,-2.35
2022-12-18T06:03:00.172Z,-2.38
2022-12-18T06:05:26.955Z,-2.41
2022-12-18T06:07:53.628Z,-2.42
2022-12-18T06:10:20.452Z,-2.46
2022-12-18T06:12:47.991Z,-2.49
2022-12-18T06:15:14.684Z,-2.51
2022-12-18T06:17:42.662Z,-2.49
2022-12-18T06:20:09.909Z,-2.49
2022-12-18T06:22:36.638Z,-2.50
2022-12-18T06:25:03.683Z,-2.52
2022-12-18T06:27:30.378Z,-2.54
2022-12-18T06:29:56.997Z,-2.55
2022-12-18T06:32:23.665Z,-2.56
2022-12-18T06:34:50.387Z,-2.54
2022-12-18T06:37:17.044Z,-2.52
2022-12-18T06:39:43.708Z,-2.51
2022-12-18T06:42:10.357Z,-2.53
2022-12-18T06:44:36.961Z,-2.55
2022-12-18T06:47:03.732Z,-2.55
2022-12-18T06:49:30.699Z,-2.54
2022-12-18T06:51:57.491Z,-2.51
2022-12-18T06:54:24.196Z,-2.51
2022-12-18T06:56:50.827Z,-2.51
2022-12-18T06:59:17.654Z,-2.52
2022-12-18T10:42:19.236Z,-3.88
2022-12-18T10:44:46.215Z,-3.88
2022-12-18T10:47:15.773Z,-3.82
2022-12-18T10:49:51.003Z,-3.76
2022-12-18T10:52:22.906Z,-3.69
2022-12-18T10:54:58.011Z,-3.60
2022-12-18T10:57:37.922Z,-3.52
2022-12-18T11:00:24.743Z,-3.44
2022-12-18T11:02:52.172Z,-3.38
2022-12-18T11:05:32.656Z,-3.34
2022-12-18T11:08:00.340Z,-3.28
2022-12-18T11:10:33.025Z,-3.24
2022-12-18T11:13:18.793Z,-3.18
2022-12-18T11:15:45.546Z,-3.11
2022-12-18T11:18:20.101Z,-3.04
2022-12-18T11:21:14.522Z,-2.97
2022-12-18T11:23:50.816Z,-2.89
2022-12-18T11:26:17.432Z,-2.87
2022-12-18T11:28:50.629Z,-2.89
2022-12-18T11:31:29.621Z,-2.90
2022-12-18T11:36:58.975Z,-2.90
2022-12-18T11:39:39.621Z,-2.90
2022-12-18T11:42:15.663Z,-2.89
2022-12-18T11:45:02.404Z,-2.90
2022-12-18T11:47:35.065Z,-2.91
2022-12-18T11:50:02.695Z,-2.89
2022-12-18T11:52:39.609Z,-2.87
2022-12-18T11:55:11.455Z,-2.85
2022-12-18T11:57:44.089Z,-2.84
2022-12-18T12:06:50.893Z,-2.68
2022-12-18T12:09:32.823Z,-2.68
2022-12-18T12:12:25.122Z,-2.71
2022-12-18T12:15:14.037Z,-2.72
2022-12-18T12:17:47.742Z,-2.69
2022-12-18T12:20:36.017Z,-2.66
2022-12-18T12:23:05.935Z,-2.65
2022-12-18T12:25:47.239Z,-2.65
2022-12-18T12:28:22.826Z,-2.63
2022-12-18T12:31:05.207Z,-2.62
2022-12-18T12:33:35.047Z,-2.59
2022-12-18T12:36:27.154Z,-2.60
2022-12-18T12:38:56.174Z,-2.61
2022-12-18T12:41:51.027Z,-2.61
2022-12-18T12:44:23.809Z,-2.61
2022-12-18T12:46:50.453Z,-2.65
2022-12-18T12:49:19.407Z,-2.68
2022-12-18T12:51:48.215Z,-2.67
2022-12-18T12:54:21.594Z,-2.68
2022-12-18T12:57:03.032Z,-2.70
2022-12-18T12:59:36.978Z,-2.70
2022-12-18T13:02:03.696Z,-2.72
2022-12-18T13:04:39.972Z,-2.73
2022-12-18T13:07:17.486Z,-2.75
2022-12-18T13:10:20.659Z,-2.75
2022-12-18T13:13:09.372Z,-2.74
2022-12-18T13:15:47.218Z,-2.77
2022-12-18T13:18:18.074Z,-2.79
2022-12-18T13:20:52.445Z,-2.83
2022-12-18T13:23:24.007Z,-2.85
2022-12-18T13:25:54.274Z,-2.82
2022-12-18T13:28:33.712Z,-2.78
2022-12-18T13:31:01.600Z,-2.76
2022-12-18T13:33:31.296Z,-2.75
2022-12-18T13:36:17.663Z,-2.73
2022-12-18T13:38:45.143Z,-2.71
2022-12-18T13:41:18.075Z,-2.70
2022-12-18T13:43:58.182Z,-2.72
2022-12-18T13:46:45.773Z,-2.73
2022-12-18T13:49:13.292Z,-2.73
2022-12-18T13:51:45.100Z,-2.73
2022-12-18T13:54:35.671Z,-2.72
2022-12-18T13:57:02.821Z,-2.73
2022-12-18T13:59:38.569Z,-2.72
2022-12-18T14:02:17.980Z,-2.73
2022-12-18T14:04:48.285Z,-2.74
2022-12-18T14:07:15.582Z,-2.78
2022-12-18T14:09:49.720Z,-2.84
2022-12-18T14:12:45.445Z,-2.89
2022-12-18T14:15:22.166Z,-2.96
2022-12-18T14:17:48.815Z,-3.01
2022-12-18T14:20:15.969Z,-3.07
2022-12-18T14:22:49.574Z,-3.09
2022-12-18T14:25:17.854Z,-3.10
2022-12-18T14:27:46.401Z,-3.13
2022-12-18T14:30:25.558Z,-3.14
2022-12-18T21:02:39.732Z,-5.99
2022-12-18T21:05:06.973Z,-6.00
2022-12-18T21:07:33.606Z,-5.95
2022-12-18T21:10:00.239Z,-5.90
2022-12-18T21:12:40.385Z,-5.83
2022-12-18T21:15:15.235Z,-5.73
2022-12-18T21:17:44.500Z,-5.65
2022-12-18T21:20:17.397Z,-5.57
2022-12-18T21:22:44.816Z,-5.50
2022-12-18T21:25:11.453Z,-5.44
2022-12-18T21:27:38.573Z,-5.40
2022-12-18T21:30:06.583Z,-5.37
2022-12-18T21:32:33.547Z,-5.34
2022-12-18T21:35:00.471Z,-5.31
2022-12-18T21:37:27.172Z,-5.28
2022-12-18T21:39:53.829Z,-5.26
2022-12-18T21:42:39.615Z,-5.24
2022-12-18T21:45:06.708Z,-5.22
2022-12-18T21:47:33.355Z,-5.22
2022-12-18T21:50:00.023Z,-5.23
2022-12-18T21:52:32.228Z,-5.24
2022-12-18T21:55:10.008Z,-5.28
2022-12-18T21:57:40.147Z,-5.34
2022-12-18T22:00:07.767Z,-5.35
2022-12-18T22:02:40.315Z,-5.38
2022-12-18T22:05:07.545Z,-5.43
2022-12-18T22:07:34.308Z,-5.47
2022-12-18T22:10:01.997Z,-5.50
2022-12-18T22:12:35.631Z,-5.50
2022-12-18T22:15:04.495Z,-5.51
2022-12-18T22:17:31.153Z,-5.55
2022-12-18T22:19:57.869Z,-5.62
2022-12-18T22:22:24.567Z,-5.66
2022-12-18T22:24:51.620Z,-5.68
2022-12-18T22:27:18.273Z,-5.68
